Andover, Connecticut
Current Conditions -  °F | °C
As of 3:32 PM on Wednesday 26 Nov 2014 (Local Time) from KIJD Reporting Station
Moderate Rain Moderate Rain  
Wind Chill: 26°   Ceiling: 1300
Heat Index: 35°   Visibility: 2.5mi
Dew Point: 32°   Wind: 15mph
Humidity: 89%   Direction: 30°NNE
Pressure: 29.88"   Gusts: NA
Location:  41.74°N, 72.37°W
Report Text: KIJD 262032Z AUTO 03013KT 2 1/2SM RA BR BKN013 BKN049 OVC070 02/00 A2988 RMK AO2 PRESFR P0007 T00170000
Loading
Personal Weather Stations






























Interactive Weather Map New forecast layout! Learn more

10-Day Weather Forecast

Advertisements
Track Severe Weather on mobile